PWSweather.com
Personal Weather Stations
Station Observations
BREEJEDURP
'sGravenzande, WestlandNL

'sGravenzandeWestlandNL

Lat: 52.00095260000001, Lon: 4.174256600000035

Elevation: 3

Station Type: Davis Vantage Pro2 Plus

Latest ConditionsUpdated 11:10:00 PM GMT+01:01 Sunday, Jan 19, 2020
Currently Today's Max Today's Min Today's Average
Temperature 43.0°F6.1°C 47.1°F8.4°C 41.2°F5.1°C 43.9°F6.6°C
Dew Point 40.5°F4.7°C 41.0°F5.0°C 36.5°F2.5°C 39.1°F3.9°C
Winds 3.0 mph NNE4.8 kmh NNE 11.0 mph -17.7 kmh - - 6.1 mph 9.8 kmh
Wind Gusts 4.0 mph6.4 kmh 16.0 mph25.7 kmh - -
Humidity 91% 91% 75% 83%
Pressure 30.92 in1047.1 mb 30.92 in1047.1 mb 30.46 in1031.5 mb -
Precipitation - 0.01 in0.3 mm - -
Hour Temp Dew Point Humidity Winds Wind Gusts Pressure Precip Precip Rate Daily Precip Total
11:10 PM 43.0°F6.1°C 40.5°F4.7°C 91% 3.0 mph NNE4.8 kmh NNE 4.0 mph6.4 kmh 30.92 in1047.1 mb 0.00 in0.0 mm 0.00 in0.0 mm 0.01 in0.3 mm
11:05 PM 43.0°F6.1°C 40.5°F4.7°C 91% 3.0 mph NNW4.8 kmh NNW 5.0 mph8.0 kmh 30.92 in1047.1 mb 0.00 in0.0 mm 0.00 in0.0 mm 0.01 in0.3 mm
11:00 PM 42.6°F5.9°C 40.2°F4.6°C 91% 2.0 mph NNE3.2 kmh NNE 4.0 mph6.4 kmh 30.92 in1047.1 mb 0.00 in0.0 mm 0.00 in0.0 mm 0.01 in0.3 mm
09:10 PM 43.2°F6.2°C 40.4°F4.7°C 90% 2.0 mph NNW3.2 kmh NNW 4.0 mph6.4 kmh 30.90 in1046.4 mb 0.00 in0.0 mm 0.00 in0.0 mm 0.01 in0.3 mm
09:05 PM 43.3°F6.3°C 40.6°F4.8°C 90% 2.0 mph N3.2 kmh N 3.0 mph4.8 kmh 30.89 in1046.1 mb 0.00 in0.0 mm 0.00 in0.0 mm 0.01 in0.3 mm
09:00 PM 43.3°F6.3°C 40.6°F4.8°C 90% 3.0 mph N4.8 kmh N 5.0 mph8.0 kmh 30.90 in1046.4 mb 0.00 in0.0 mm 0.00 in0.0 mm 0.01 in0.3 mm
07:10 PM 43.0°F6.1°C 40.5°F4.7°C 91% 2.0 mph N3.2 kmh N 4.0 mph6.4 kmh 30.86 in1045.0 mb 0.00 in0.0 mm 0.00 in0.0 mm 0.01 in0.3 mm
07:05 PM 43.2°F6.2°C 40.7°F4.8°C 91% 2.0 mph NNE3.2 kmh NNE 5.0 mph8.0 kmh 30.86 in1045.0 mb 0.00 in0.0 mm 0.00 in0.0 mm 0.01 in0.3 mm
07:00 PM 43.3°F6.3°C 40.9°F4.9°C 91% 5.0 mph NNE8.0 kmh NNE 9.0 mph14.5 kmh 30.86 in1045.0 mb 0.00 in0.0 mm 0.00 in0.0 mm 0.01 in0.3 mm
05:10 PM 44.4°F6.9°C 40.5°F4.7°C 86% 3.0 mph NNE4.8 kmh NNE 6.0 mph9.7 kmh 30.82 in1043.7 mb 0.00 in0.0 mm 0.00 in0.0 mm 0.01 in0.3 mm
05:05 PM 44.8°F7.1°C 40.9°F4.9°C 86% 5.0 mph N8.0 kmh N 6.0 mph9.7 kmh 30.82 in1043.7 mb 0.00 in0.0 mm 0.00 in0.0 mm 0.01 in0.3 mm
05:00 PM 45.0°F7.2°C 41.0°F5.0°C 86% 4.0 mph NE6.4 kmh NE 7.0 mph11.3 kmh 30.81 in1043.3 mb 0.00 in0.0 mm 0.00 in0.0 mm 0.01 in0.3 mm
03:10 PM 46.0°F7.8°C 39.2°F4.0°C 77% 8.0 mph NNE12.9 kmh NNE 13.0 mph20.9 kmh 30.77 in1042.0 mb 0.00 in0.0 mm 0.00 in0.0 mm 0.01 in0.3 mm
03:05 PM 45.9°F7.7°C 38.7°F3.7°C 76% 4.0 mph NNE6.4 kmh NNE 9.0 mph14.5 kmh 30.77 in1042.0 mb 0.00 in0.0 mm 0.00 in0.0 mm 0.01 in0.3 mm
03:00 PM 46.0°F7.8°C 38.6°F3.7°C 75% 5.0 mph NE8.0 kmh NE 9.0 mph14.5 kmh 30.77 in1042.0 mb 0.00 in0.0 mm 0.00 in0.0 mm 0.01 in0.3 mm
01:10 PM 46.9°F8.3°C 40.1°F4.5°C 77% 9.0 mph NNE14.5 kmh NNE 14.0 mph22.5 kmh 30.75 in1041.3 mb 0.00 in0.0 mm 0.00 in0.0 mm 0.01 in0.3 mm
01:05 PM 46.9°F8.3°C 40.1°F4.5°C 77% 5.0 mph NNE8.0 kmh NNE 11.0 mph17.7 kmh 30.74 in1041.0 mb 0.00 in0.0 mm 0.00 in0.0 mm 0.01 in0.3 mm
01:00 PM 47.1°F8.4°C 40.0°F4.4°C 76% 5.0 mph NNE8.0 kmh NNE 9.0 mph14.5 kmh 30.74 in1041.0 mb 0.00 in0.0 mm 0.00 in0.0 mm 0.01 in0.3 mm
11:10 AM 46.2°F7.9°C 39.4°F4.1°C 77% 10.0 mph NNE16.1 kmh NNE 13.0 mph20.9 kmh 30.71 in1040.0 mb 0.00 in0.0 mm 0.00 in0.0 mm 0.01 in0.3 mm
11:05 AM 46.0°F7.8°C 39.2°F4.0°C 77% 10.0 mph NNE16.1 kmh NNE 14.0 mph22.5 kmh 30.71 in1040.0 mb 0.00 in0.0 mm 0.00 in0.0 mm 0.01 in0.3 mm
11:00 AM 45.9°F7.7°C 39.1°F3.9°C 77% 8.0 mph NNE12.9 kmh NNE 14.0 mph22.5 kmh 30.71 in1040.0 mb 0.00 in0.0 mm 0.00 in0.0 mm 0.01 in0.3 mm
09:10 AM 43.3°F6.3°C 38.5°F3.6°C 83% 7.0 mph NNE11.3 kmh NNE 13.0 mph20.9 kmh 30.65 in1037.9 mb 0.00 in0.0 mm 0.00 in0.0 mm 0.01 in0.3 mm
09:05 AM 43.3°F6.3°C 38.2°F3.4°C 82% 10.0 mph NNE16.1 kmh NNE 16.0 mph25.7 kmh 30.65 in1037.9 mb 0.00 in0.0 mm 0.00 in0.0 mm 0.01 in0.3 mm
09:00 AM 43.3°F6.3°C 37.9°F3.3°C 81% 7.0 mph NNW11.3 kmh NNW 11.0 mph17.7 kmh 30.65 in1037.9 mb 0.00 in0.0 mm 0.00 in0.0 mm 0.01 in0.3 mm
07:10 AM 42.6°F5.9°C 38.1°F3.4°C 84% 8.0 mph NNE12.9 kmh NNE 15.0 mph24.1 kmh 30.57 in1035.2 mb 0.00 in0.0 mm 0.00 in0.0 mm 0.01 in0.3 mm
07:05 AM 42.6°F5.9°C 38.1°F3.4°C 84% 7.0 mph NNE11.3 kmh NNE 13.0 mph20.9 kmh 30.57 in1035.2 mb 0.00 in0.0 mm 0.00 in0.0 mm 0.01 in0.3 mm
07:00 AM 42.6°F5.9°C 38.1°F3.4°C 84% 8.0 mph NNE12.9 kmh NNE 12.0 mph19.3 kmh 30.57 in1035.2 mb 0.00 in0.0 mm 0.00 in0.0 mm 0.01 in0.3 mm
05:10 AM 42.3°F5.7°C 38.7°F3.7°C 87% 9.0 mph N14.5 kmh N 13.0 mph20.9 kmh 30.54 in1034.2 mb 0.00 in0.0 mm 0.00 in0.0 mm 0.01 in0.3 mm
05:05 AM 41.7°F5.4°C 38.1°F3.4°C 87% 11.0 mph NNW17.7 kmh NNW 15.0 mph24.1 kmh 30.54 in1034.2 mb 0.00 in0.0 mm 0.00 in0.0 mm 0.01 in0.3 mm
05:00 AM 41.2°F5.1°C 37.6°F3.1°C 87% 8.0 mph NNW12.9 kmh NNW 11.0 mph17.7 kmh 30.54 in1034.2 mb 0.00 in0.0 mm 0.00 in0.0 mm 0.01 in0.3 mm
03:10 AM 43.2°F6.2°C 36.8°F2.7°C 78% 5.0 mph NNE8.0 kmh NNE 8.0 mph12.9 kmh 30.51 in1033.2 mb 0.00 in0.0 mm 0.00 in0.0 mm 0.01 in0.3 mm
03:05 AM 43.3°F6.3°C 37.3°F2.9°C 79% 8.0 mph NNW12.9 kmh NNW 12.0 mph19.3 kmh 30.51 in1033.2 mb 0.00 in0.0 mm 0.00 in0.0 mm 0.01 in0.3 mm
03:00 AM 43.2°F6.2°C 37.1°F2.8°C 79% 8.0 mph NNW12.9 kmh NNW 12.0 mph19.3 kmh 30.50 in1032.8 mb 0.00 in0.0 mm 0.00 in0.0 mm 0.01 in0.3 mm
01:10 AM 42.4°F5.8°C 37.7°F3.2°C 83% 9.0 mph NNW14.5 kmh NNW 13.0 mph20.9 kmh 30.47 in1031.8 mb 0.00 in0.0 mm 0.00 in0.0 mm 0.01 in0.3 mm
01:05 AM 42.6°F5.9°C 37.5°F3.1°C 82% 10.0 mph NNW16.1 kmh NNW 14.0 mph22.5 kmh 30.47 in1031.8 mb 0.00 in0.0 mm 0.00 in0.0 mm 0.01 in0.3 mm
01:00 AM 42.3°F5.7°C 36.5°F2.5°C 80% 6.0 mph NW9.7 kmh NW 9.0 mph14.5 kmh 30.46 in1031.5 mb 0.00 in0.0 mm 0.00 in0.0 mm 0.01 in0.3 mm